Time;durP1;ratioP1;P1;durP2;ratioP2;P2;SDS_P1;SDS_P2;PMS_P1;PMS_P2;Temp;Humidity;BMP_temperature;BMP_pressure;BME280_temperature;BME280_humidity;BME280_pressure;Samples;Min_cycle;Max_cycle;Signal;HPM_P1;HPM_P2
2023/02/13 00:01:14;;;;;;;3.70;1.80;;;7.70;91.80;;;;;;5113536;28;20469;-73
2023/02/13 00:03:40;;;;;;;3.75;1.95;;;7.70;91.80;;;;;;5114097;28;20039;-74
2023/02/13 00:06:05;;;;;;;5.68;2.20;;;7.70;91.80;;;;;;5113633;28;20039;-73
2023/02/13 00:08:31;;;;;;;4.20;1.88;;;7.70;91.80;;;;;;5114032;28;20047;-74
2023/02/13 00:10:57;;;;;;;3.40;1.77;;;7.70;91.70;;;;;;5113567;28;20474;-73
2023/02/13 00:13:22;;;;;;;4.03;1.80;;;7.70;91.70;;;;;;5094432;28;20067;-73
2023/02/13 00:15:57;;;;;;;3.92;1.83;;;7.70;91.70;;;;;;5113306;28;20040;-73
2023/02/13 00:18:23;;;;;;;3.65;1.80;;;7.70;91.70;;;;;;5113292;28;20541;-73
2023/02/13 00:21:03;;;;;;;3.97;1.83;;;7.60;91.70;;;;;;5113435;28;20035;-73
2023/02/13 00:23:30;;;;;;;3.83;1.85;;;7.60;91.60;;;;;;5095233;28;20047;-73
2023/02/13 00:25:57;;;;;;;4.82;1.70;;;7.60;91.60;;;;;;5094045;28;20036;-74
2023/02/13 00:28:23;;;;;;;3.05;1.55;;;7.60;91.60;;;;;;5113289;28;20036;-73
2023/02/13 00:30:48;;;;;;;3.05;1.55;;;7.60;91.60;;;;;;5113370;28;20043;-73
2023/02/13 00:33:14;;;;;;;3.78;1.60;;;7.60;91.60;;;;;;5094704;28;20495;-73
2023/02/13 00:35:40;;;;;;;3.80;1.90;;;7.60;91.60;;;;;;5112912;28;20051;-74
2023/02/13 00:38:05;;;;;;;3.60;1.90;;;7.60;91.60;;;;;;5092910;28;20044;-73
2023/02/13 00:40:31;;;;;;;3.85;1.75;;;7.60;91.60;;;;;;5113026;28;20035;-74
2023/02/13 00:42:57;;;;;;;2.85;1.48;;;7.60;91.50;;;;;;5094107;28;20486;-73
2023/02/13 00:45:22;;;;;;;3.42;1.58;;;7.60;91.50;;;;;;5113360;28;20470;-74
2023/02/13 00:47:48;;;;;;;3.75;1.70;;;7.60;91.40;;;;;;5113024;28;20046;-73
2023/02/13 00:50:13;;;;;;;3.60;1.70;;;7.60;91.40;;;;;;5113000;28;20047;-73
2023/02/13 00:52:39;;;;;;;2.72;1.40;;;7.50;91.40;;;;;;5093016;28;20079;-73
2023/02/13 00:55:05;;;;;;;3.30;1.58;;;7.60;91.40;;;;;;5077592;28;20039;-74
2023/02/13 00:57:31;;;;;;;3.50;1.65;;;7.60;91.40;;;;;;5094432;28;20130;-74
2023/02/13 00:59:57;;;;;;;2.70;1.48;;;7.50;91.40;;;;;;5112757;28;20540;-73
2023/02/13 01:02:23;;;;;;;4.05;1.60;;;7.60;91.40;;;;;;5112452;28;20130;-73
2023/02/13 01:04:48;;;;;;;2.60;1.42;;;7.60;91.40;;;;;;5112343;28;20078;-73
2023/02/13 01:07:14;;;;;;;3.10;1.60;;;7.50;91.40;;;;;;5112345;28;20036;-73
2023/02/13 01:09:40;;;;;;;4.32;1.95;;;7.50;91.30;;;;;;5092546;28;20046;-73
2023/02/13 01:12:06;;;;;;;3.55;1.70;;;7.60;91.40;;;;;;5112461;28;20442;-73
2023/02/13 01:14:31;;;;;;;4.15;1.67;;;7.60;91.30;;;;;;5112535;28;20039;-73
2023/02/13 01:16:57;;;;;;;3.03;1.63;;;7.60;91.30;;;;;;5112477;28;20063;-74
2023/02/13 01:19:23;;;;;;;4.03;1.80;;;7.60;91.30;;;;;;5112695;28;20119;-73
2023/02/13 01:21:48;;;;;;;4.00;1.60;;;7.60;91.30;;;;;;5112667;28;20082;-73
2023/02/13 01:24:14;;;;;;;4.22;1.83;;;7.60;91.30;;;;;;5112599;28;20493;-73
2023/02/13 01:26:40;;;;;;;2.75;1.35;;;7.60;91.30;;;;;;5112133;28;20485;-73
2023/02/13 01:29:06;;;;;;;3.63;1.67;;;7.60;91.30;;;;;;5112016;28;20039;-74
2023/02/13 01:31:31;;;;;;;2.97;1.48;;;7.60;91.20;;;;;;5112488;28;20043;-74
2023/02/13 01:33:58;;;;;;;2.80;1.45;;;7.60;91.20;;;;;;5112045;28;20074;-74
2023/02/13 01:36:24;;;;;;;3.42;1.40;;;7.50;91.20;;;;;;5111941;28;20040;-74
2023/02/13 01:38:54;;;;;;;3.17;1.58;;;7.60;91.30;;;;;;5093888;28;20043;-74
2023/02/13 01:41:20;;;;;;;3.60;1.65;;;7.60;91.20;;;;;;5112532;28;20047;-74
2023/02/13 01:43:56;;;;;;;2.85;1.60;;;7.50;91.20;;;;;;5114551;28;20042;-73
2023/02/13 01:46:31;;;;;;;3.08;1.63;;;7.50;91.20;;;;;;5115654;28;20065;-74
2023/02/13 01:49:09;;;;;;;3.03;1.58;;;7.40;91.10;;;;;;5116081;28;20106;-74
2023/02/13 01:51:36;;;;;;;3.88;1.80;;;7.50;91.20;;;;;;5097178;28;20497;-74
2023/02/13 01:54:09;;;;;;;4.47;1.73;;;7.50;91.10;;;;;;5115962;28;20221;-73
2023/02/13 01:56:41;;;;;;;2.97;1.52;;;7.50;91.10;;;;;;5115726;28;20440;-74
2023/02/13 01:59:11;;;;;;;5.00;2.00;;;7.50;91.10;;;;;;5096217;28;20047;-74
2023/02/13 02:01:37;;;;;;;3.17;1.65;;;7.50;91.10;;;;;;5115069;28;20039;-73
2023/02/13 02:04:21;;;;;;;4.65;1.85;;;7.50;91.10;;;;;;5115650;28;20047;-73
2023/02/13 02:06:53;;;;;;;3.55;1.58;;;7.50;91.10;;;;;;5115581;28;20099;-73
2023/02/13 02:09:24;;;;;;;2.70;1.50;;;7.50;91.10;;;;;;5114952;28;20095;-73
2023/02/13 02:12:00;;;;;;;3.95;1.88;;;7.50;91.10;;;;;;5115037;28;20046;-73
2023/02/13 02:14:26;;;;;;;3.08;1.65;;;7.50;91.10;;;;;;5115329;28;20088;-74
2023/02/13 02:16:52;;;;;;;3.47;1.83;;;7.60;91.10;;;;;;5114951;28;20035;-73
2023/02/13 02:19:54;;;;;;;3.85;1.65;;;7.50;91.10;;;;;;5115309;28;20036;-74
2023/02/13 02:22:49;;;;;;;3.55;1.77;;;7.50;91.10;;;;;;5096407;28;20088;-74
2023/02/13 02:25:49;;;;;;;3.33;1.60;;;7.50;91.00;;;;;;5096671;28;20039;-73
2023/02/13 02:28:50;;;;;;;3.70;1.80;;;7.50;91.00;;;;;;5114924;28;20040;-73
2023/02/13 02:31:39;;;;;;;3.05;1.42;;;7.50;91.00;;;;;;5100290;28;20088;-73
2023/02/13 02:34:40;;;;;;;3.35;1.58;;;7.50;91.00;;;;;;5112420;28;20057;-73
2023/02/13 02:37:31;;;;;;;5.35;1.73;;;7.50;91.00;;;;;;5099762;28;20070;-73
2023/02/13 02:40:29;;;;;;;2.60;1.50;;;7.50;91.00;;;;;;5114509;28;20067;-73
2023/02/13 02:43:10;;;;;;;3.22;1.48;;;7.60;91.00;;;;;;5100126;28;20746;-73
2023/02/13 02:46:03;;;;;;;3.40;1.80;;;7.60;91.00;;;;;;5114390;28;20066;-73
2023/02/13 02:51:40;;;;;;;2.88;1.35;;;7.50;90.90;;;;;;5114518;28;20431;-73
2023/02/13 02:57:02;;;;;;;2.97;1.45;;;7.50;90.90;;;;;;5112493;28;20134;-73
2023/02/13 03:07:37;;;;;;;2.63;1.40;;;7.50;90.90;;;;;;5114124;28;20047;-73
2023/02/13 03:22:17;;;;;;;2.08;1.17;;;7.60;91.00;;;;;;5096575;28;20059;-74
2023/02/13 03:24:26;;;;;;;3.30;1.40;;;7.50;90.90;;;;;;5113898;28;20040;-74
2023/02/13 03:27:07;;;;;;;2.30;1.30;;;7.50;90.90;;;;;;5114335;28;20050;-73
2023/02/13 03:30:10;;;;;;;2.88;1.27;;;7.50;90.90;;;;;;5114127;28;20035;-73
2023/02/13 03:32:53;;;;;;;2.53;1.20;;;7.50;90.90;;;;;;5095390;28;20503;-73
2023/02/13 03:38:27;;;;;;;3.05;1.45;;;7.50;90.90;;;;;;5113557;28;20397;-74
2023/02/13 03:43:55;;;;;;;3.13;1.52;;;7.50;90.90;;;;;;5113799;28;20152;-73
2023/02/13 03:46:22;;;;;;;;;;;7.50;90.90;;;;;;5114433;28;20438;-73
2023/02/13 03:51:45;;;;;;;1.95;1.17;;;7.50;90.90;;;;;;5111219;28;20039;-74
2023/02/13 04:00:04;;;;;;;3.55;1.65;;;7.40;90.90;;;;;;5113203;28;20035;-74
2023/02/13 04:02:33;;;;;;;2.78;1.50;;;7.40;90.90;;;;;;5113433;28;20036;-73
2023/02/13 04:05:08;;;;;;;2.63;1.40;;;7.40;90.90;;;;;;5113455;28;20035;-74
2023/02/13 04:07:34;;;;;;;2.60;1.45;;;7.40;90.90;;;;;;5095617;28;20047;-73
2023/02/13 04:10:06;;;;;;;2.65;1.33;;;7.40;90.90;;;;;;5113662;28;20040;-73
2023/02/13 04:12:49;;;;;;;4.20;1.80;;;7.40;90.90;;;;;;5113511;28;20122;-73
2023/02/13 04:15:25;;;;;;;2.42;1.40;;;7.40;90.90;;;;;;5113152;28;20046;-73
2023/02/13 04:18:03;;;;;;;3.28;1.40;;;7.40;90.90;;;;;;5094555;28;20052;-73
2023/02/13 04:20:31;;;;;;;2.75;1.48;;;7.50;91.00;;;;;;5113028;28;20046;-73
2023/02/13 04:22:56;;;;;;;4.50;1.80;;;7.40;90.90;;;;;;5112824;28;20093;-73
2023/02/13 04:25:22;;;;;;;2.85;1.38;;;7.40;90.90;;;;;;5112941;28;20044;-73
2023/02/13 04:27:48;;;;;;;3.45;1.52;;;7.30;90.90;;;;;;5113300;28;20043;-74
2023/02/13 04:30:13;;;;;;;3.10;1.50;;;7.50;91.00;;;;;;5112974;28;20112;-73
2023/02/13 04:32:39;;;;;;;5.35;2.13;;;7.40;91.00;;;;;;5112627;28;20043;-73
2023/02/13 04:35:05;;;;;;;3.47;1.70;;;7.40;91.00;;;;;;5112773;28;20055;-73
2023/02/13 04:37:31;;;;;;;3.72;1.58;;;7.40;91.00;;;;;;5112656;28;20035;-73
2023/02/13 04:39:56;;;;;;;2.72;1.40;;;7.50;91.00;;;;;;5094300;28;20050;-74
2023/02/13 04:42:22;;;;;;;2.95;1.52;;;7.40;91.00;;;;;;5094513;28;20122;-73
2023/02/13 04:44:47;;;;;;;2.60;1.30;;;7.30;91.00;;;;;;5113194;28;20088;-73
2023/02/13 04:47:13;;;;;;;3.00;1.60;;;7.40;91.00;;;;;;5113188;28;20370;-74
2023/02/13 04:49:38;;;;;;;2.25;1.30;;;7.30;91.00;;;;;;5112552;28;20173;-73
2023/02/13 04:52:04;;;;;;;3.03;1.52;;;7.40;91.00;;;;;;5112859;28;20047;-73
2023/02/13 04:54:30;;;;;;;3.58;1.80;;;7.40;91.00;;;;;;5112918;28;20036;-73
2023/02/13 04:56:55;;;;;;;3.30;1.58;;;7.40;90.90;;;;;;5112865;28;20038;-73
2023/02/13 04:59:21;;;;;;;3.15;1.65;;;7.40;91.00;;;;;;5094219;28;20048;-74
2023/02/13 05:01:46;;;;;;;2.22;1.23;;;7.30;90.90;;;;;;5094314;28;20116;-73
2023/02/13 05:04:15;;;;;;;3.00;1.60;;;7.30;90.90;;;;;;5113113;28;20475;-73
2023/02/13 05:06:41;;;;;;;3.75;1.50;;;7.40;90.90;;;;;;5094333;28;20056;-73
2023/02/13 05:09:07;;;;;;;3.65;1.75;;;7.40;90.90;;;;;;5113017;28;20106;-72
2023/02/13 05:11:32;;;;;;;3.60;1.73;;;7.40;90.90;;;;;;5076333;28;20040;-73
2023/02/13 05:13:58;;;;;;;3.50;1.63;;;7.40;90.90;;;;;;5113148;28;20465;-73
2023/02/13 05:16:23;;;;;;;3.08;1.50;;;7.30;91.00;;;;;;5094373;28;20062;-73
2023/02/13 05:18:53;;;;;;;3.13;1.70;;;7.30;91.00;;;;;;5096504;28;20047;-74
2023/02/13 05:24:00;;;;;;;2.22;1.35;;;7.30;91.00;;;;;;5116136;28;20485;-73
2023/02/13 05:26:25;;;;;;;3.65;1.70;;;7.40;91.00;;;;;;5116634;28;20149;-74
2023/02/13 05:31:30;;;;;;;3.40;1.60;;;7.30;91.00;;;;;;5116039;28;20048;-74
2023/02/13 05:33:56;;;;;;;4.00;1.65;;;7.30;91.00;;;;;;5098296;28;20031;-74
2023/02/13 05:36:21;;;;;;;4.13;1.95;;;7.30;91.00;;;;;;5098413;28;20036;-73
2023/02/13 05:38:47;;;;;;;3.47;1.63;;;7.30;91.00;;;;;;5097799;28;20038;-73
2023/02/13 05:41:12;;;;;;;3.75;1.80;;;7.30;91.20;;;;;;5116448;28;20044;-73
2023/02/13 05:43:38;;;;;;;3.10;1.55;;;7.30;91.20;;;;;;5096333;28;20524;-73
2023/02/13 05:46:05;;;;;;;3.10;1.60;;;7.40;90.90;;;;;;5098251;28;20110;-73
2023/02/13 05:48:31;;;;;;;2.15;1.20;;;7.30;90.90;;;;;;5098277;28;20540;-73
2023/02/13 05:50:57;;;;;;;3.17;1.40;;;7.30;90.90;;;;;;5115708;28;20067;-74
2023/02/13 05:53:23;;;;;;;3.92;1.60;;;7.40;90.90;;;;;;5097636;28;20122;-73
2023/02/13 05:55:51;;;;;;;2.45;1.52;;;7.30;90.90;;;;;;5115538;28;20548;-73
2023/02/13 05:58:17;;;;;;;2.92;1.42;;;7.40;90.90;;;;;;5115576;28;20047;-74
2023/02/13 06:00:43;;;;;;;4.00;1.83;;;7.40;90.90;;;;;;5115900;28;20044;-74
2023/02/13 06:03:08;;;;;;;3.40;1.75;;;7.40;90.90;;;;;;5115481;28;20088;-74
2023/02/13 06:05:34;;;;;;;3.78;1.67;;;7.40;90.90;;;;;;5115487;28;20509;-74
2023/02/13 06:08:00;;;;;;;3.92;1.88;;;7.40;91.20;;;;;;5080091;28;20051;-74
2023/02/13 06:10:25;;;;;;;3.15;1.45;;;7.40;90.90;;;;;;5095600;28;20044;-74
2023/02/13 06:12:51;;;;;;;3.28;1.58;;;7.40;90.90;;;;;;5080292;28;20393;-74
2023/02/13 06:15:17;;;;;;;4.45;1.80;;;7.30;90.90;;;;;;5115088;28;20086;-74
2023/02/13 06:17:42;;;;;;;3.17;1.75;;;7.40;90.90;;;;;;5115392;28;20040;-74
2023/02/13 06:20:08;;;;;;;3.70;1.85;;;7.40;90.90;;;;;;5115231;28;20042;-75
2023/02/13 06:22:34;;;;;;;5.00;2.45;;;7.40;90.90;;;;;;5079945;28;20036;-75
2023/02/13 06:25:00;;;;;;;3.20;1.67;;;7.40;90.90;;;;;;5095761;28;20040;-75
2023/02/13 06:27:25;;;;;;;2.60;1.50;;;7.40;90.90;;;;;;5115696;28;20043;-75
2023/02/13 06:29:51;;;;;;;2.45;1.45;;;7.40;90.90;;;;;;5114712;28;20443;-75
2023/02/13 06:32:17;;;;;;;3.13;1.70;;;7.40;90.90;;;;;;5095943;28;20075;-75
2023/02/13 06:34:42;;;;;;;2.80;1.52;;;7.40;90.90;;;;;;5115024;28;20122;-75
2023/02/13 06:37:08;;;;;;;3.58;1.60;;;7.40;90.90;;;;;;5115193;28;20044;-75
2023/02/13 06:39:34;;;;;;;3.58;1.70;;;7.40;90.90;;;;;;5095897;28;20039;-75
2023/02/13 06:41:59;;;;;;;3.55;1.52;;;7.40;90.90;;;;;;5114854;28;20059;-75
2023/02/13 06:44:25;;;;;;;3.17;1.52;;;7.40;90.90;;;;;;5096648;28;20062;-73
2023/02/13 06:46:50;;;;;;;3.25;1.60;;;7.40;90.90;;;;;;5095895;28;20096;-74
2023/02/13 06:49:16;;;;;;;4.22;1.80;;;7.40;90.90;;;;;;5115042;28;20058;-73
2023/02/13 06:51:41;;;;;;;2.05;1.08;;;7.40;90.90;;;;;;5114681;28;20112;-73
2023/02/13 06:54:07;;;;;;;3.78;1.27;;;7.40;90.90;;;;;;5096439;28;20398;-73
2023/02/13 06:56:33;;;;;;;3.55;1.70;;;7.40;90.90;;;;;;5096269;28;20044;-73
2023/02/13 06:58:59;;;;;;;4.53;1.90;;;7.40;90.90;;;;;;5115076;28;20043;-73
2023/02/13 07:01:24;;;;;;;2.58;1.55;;;7.40;90.90;;;;;;5096513;28;20131;-74
2023/02/13 07:03:50;;;;;;;2.60;1.48;;;7.40;90.90;;;;;;5114574;28;20035;-74
2023/02/13 07:06:17;;;;;;;2.75;1.50;;;7.40;90.90;;;;;;5096566;28;20040;-73
2023/02/13 07:08:43;;;;;;;3.30;1.52;;;7.40;90.90;;;;;;5114970;28;20051;-74
2023/02/13 07:11:16;;;;;;;3.17;1.50;;;7.40;90.90;;;;;;5062759;28;20044;-74
2023/02/13 07:13:42;;;;;;;3.53;1.77;;;7.40;90.90;;;;;;5096548;28;20047;-76
2023/02/13 07:16:08;;;;;;;3.28;1.70;;;7.40;90.90;;;;;;5097493;28;20043;-76
2023/02/13 07:18:33;;;;;;;2.78;1.52;;;7.40;90.90;;;;;;5096913;28;20126;-76
2023/02/13 07:20:59;;;;;;;4.20;1.70;;;7.40;90.90;;;;;;5080824;28;20107;-76
2023/02/13 07:23:24;;;;;;;2.92;1.48;;;7.40;90.90;;;;;;5115258;28;20053;-76
2023/02/13 07:25:50;;;;;;;3.72;1.98;;;7.40;90.90;;;;;;5079902;28;20039;-76
2023/02/13 07:28:16;;;;;;;3.92;2.05;;;7.40;90.90;;;;;;5098610;28;20058;-76
2023/02/13 07:30:41;;;;;;;3.78;1.85;;;7.40;90.90;;;;;;5079831;28;20040;-75
2023/02/13 07:33:08;;;;;;;2.53;1.40;;;7.40;90.90;;;;;;5114460;28;20048;-76
2023/02/13 07:35:35;;;;;;;3.53;1.50;;;7.40;90.90;;;;;;5113969;28;20497;-75
2023/02/13 07:38:00;;;;;;;2.95;1.60;;;7.40;90.90;;;;;;5060507;28;20466;-75
2023/02/13 07:40:26;;;;;;;4.45;2.08;;;7.40;90.90;;;;;;5077897;28;20138;-75
2023/02/13 07:42:52;;;;;;;3.08;1.60;;;7.40;90.90;;;;;;5078670;28;20554;-75
2023/02/13 07:45:18;;;;;;;4.80;1.80;;;7.40;90.90;;;;;;5093859;28;20063;-75
2023/02/13 07:47:43;;;;;;;4.53;2.20;;;7.30;91.10;;;;;;5095801;28;20043;-75
2023/02/13 07:50:10;;;;;;;3.60;1.73;;;7.50;90.90;;;;;;5094683;28;20048;-75
2023/02/13 07:52:36;;;;;;;4.28;2.03;;;7.50;90.90;;;;;;5095316;28;20073;-76
2023/02/13 07:55:03;;;;;;;3.75;1.90;;;7.50;90.90;;;;;;5096848;28;20115;-74
2023/02/13 07:57:30;;;;;;;2.22;1.55;;;7.50;90.80;;;;;;5095069;28;20051;-72
2023/02/13 07:59:56;;;;;;;3.22;1.65;;;7.60;90.90;;;;;;5094912;28;20032;-72
2023/02/13 08:02:21;;;;;;;3.78;1.90;;;7.60;90.80;;;;;;5113458;28;20045;-72
2023/02/13 08:04:47;;;;;;;2.80;1.60;;;7.70;90.80;;;;;;5113782;28;20056;-72
2023/02/13 08:07:14;;;;;;;3.42;1.88;;;7.70;90.80;;;;;;5113918;28;20051;-72
2023/02/13 08:12:23;;;;;;;2.65;1.33;;;7.70;90.70;;;;;;5113184;28;20039;-72
2023/02/13 08:14:48;;;;;;;4.25;1.65;;;7.80;90.70;;;;;;5094984;28;20446;-72
2023/02/13 08:17:14;;;;;;;2.63;1.52;;;7.70;90.70;;;;;;5113788;28;20051;-72
2023/02/13 08:19:40;;;;;;;3.33;1.80;;;7.80;90.70;;;;;;5093739;28;20131;-72
2023/02/13 08:22:08;;;;;;;4.88;2.10;;;7.80;90.70;;;;;;5094958;28;20038;-73
2023/02/13 08:24:34;;;;;;;3.10;1.60;;;7.80;90.70;;;;;;5078367;28;20047;-72
2023/02/13 08:26:59;;;;;;;4.07;1.77;;;7.90;90.70;;;;;;5113606;28;20035;-72
2023/02/13 08:29:25;;;;;;;4.05;1.95;;;7.90;90.60;;;;;;5061421;28;20370;-73
2023/02/13 08:31:50;;;;;;;3.50;2.00;;;8.00;90.70;;;;;;5094880;28;20461;-72
2023/02/13 08:34:16;;;;;;;4.18;1.95;;;7.90;90.60;;;;;;5113020;28;20142;-72
2023/02/13 08:36:42;;;;;;;3.97;1.95;;;8.00;90.60;;;;;;5094715;28;20086;-72
2023/02/13 08:39:09;;;;;;;4.10;2.00;;;8.00;90.50;;;;;;5094788;28;20047;-72
2023/02/13 08:41:34;;;;;;;3.33;1.80;;;8.10;90.50;;;;;;5077715;28;20028;-72
2023/02/13 08:44:00;;;;;;;3.55;1.83;;;8.20;90.50;;;;;;5112939;28;20038;-72
2023/02/13 08:46:26;;;;;;;4.65;2.22;;;8.20;90.50;;;;;;5113355;28;20130;-72
2023/02/13 08:48:57;;;;;;;4.05;2.38;;;8.20;90.50;;;;;;5077857;28;20043;-74
2023/02/13 08:51:23;;;;;;;4.20;2.15;;;8.30;90.40;;;;;;5094400;28;20488;-73
2023/02/13 08:53:52;;;;;;;3.92;2.10;;;8.30;90.40;;;;;;5061507;28;20063;-73
2023/02/13 08:56:17;;;;;;;6.43;2.80;;;8.40;90.40;;;;;;5093174;28;20075;-75
2023/02/13 09:02:15;;;;;;;4.47;2.15;;;8.50;90.30;;;;;;4968152;28;20058;-74
2023/02/13 09:04:48;;;;;;;4.95;2.08;;;8.60;90.30;;;;;;4913112;29;20113;-75
2023/02/13 09:07:17;;;;;;;3.90;2.28;;;8.50;90.20;;;;;;4912135;29;20050;-75
2023/02/13 09:18:28;;;;;;;4.57;1.77;;;8.70;90.20;;;;;;4867372;29;20059;-77
2023/02/13 09:21:10;;;;;;;3.95;2.10;;;8.70;90.10;;;;;;4804341;29;20078;-74
2023/02/13 09:24:17;;;;;;;3.60;1.92;;;8.70;90.10;;;;;;4805583;29;20055;-75
2023/02/13 09:30:25;;;;;;;4.05;2.10;;;8.80;90.10;;;;;;4785781;29;20219;-73
2023/02/13 09:33:09;;;;;;;4.68;2.20;;;8.90;90.00;;;;;;4799794;29;20050;-73
2023/02/13 09:35:40;;;;;;;4.50;2.25;;;8.90;90.00;;;;;;4837617;29;20058;-73
2023/02/13 09:38:14;;;;;;;5.05;2.60;;;8.90;90.00;;;;;;4844027;29;20046;-74
2023/02/13 09:41:35;;;;;;;5.10;2.03;;;9.00;90.00;;;;;;4812230;29;20120;-75
2023/02/13 09:47:59;;;;;;;3.30;1.70;;;9.10;90.00;;;;;;4819330;29;20065;-75
2023/02/13 09:50:50;;;;;;;3.53;1.63;;;9.10;89.80;;;;;;4801232;29;20050;-74
2023/02/13 09:53:48;;;;;;;4.22;2.00;;;9.20;89.80;;;;;;4727870;30;20045;-72
2023/02/13 09:56:51;;;;;;;2.55;1.50;;;9.20;89.70;;;;;;4700837;30;20039;-72
2023/02/13 09:59:48;;;;;;;3.33;1.88;;;9.30;89.70;;;;;;4716176;30;20090;-72
2023/02/13 10:02:45;;;;;;;3.50;1.60;;;9.30;89.60;;;;;;4730685;30;20049;-72
2023/02/13 10:05:49;;;;;;;3.78;2.08;;;9.40;89.50;;;;;;4704188;30;20057;-73
2023/02/13 10:08:36;;;;;;;3.60;1.85;;;9.30;89.50;;;;;;4792574;29;20046;-73
2023/02/13 10:11:36;;;;;;;3.85;2.03;;;9.30;89.50;;;;;;4843885;29;20056;-74
2023/02/13 10:14:18;;;;;;;3.65;1.90;;;9.40;89.50;;;;;;4824392;29;20491;-74
2023/02/13 10:16:51;;;;;;;3.95;2.08;;;9.40;89.50;;;;;;4805576;29;20494;-72
2023/02/13 10:19:30;;;;;;;3.35;1.80;;;9.30;90.00;;;;;;4838794;29;20532;-73
2023/02/13 10:22:00;;;;;;;3.65;1.95;;;9.40;89.50;;;;;;4852222;29;20046;-73
2023/02/13 10:24:50;;;;;;;3.83;1.93;;;9.50;89.50;;;;;;4860584;29;20045;-72
2023/02/13 10:27:22;;;;;;;4.13;2.00;;;9.50;89.40;;;;;;4943448;28;20038;-73
2023/02/13 10:33:21;;;;;;;2.78;1.58;;;9.60;89.10;;;;;;5024246;28;20131;-73
2023/02/13 10:39:35;;;;;;;4.18;2.10;;;9.70;89.20;;;;;;5011798;28;20205;-73
2023/02/13 10:42:31;;;;;;;3.58;1.95;;;9.70;89.10;;;;;;4963616;28;20038;-73
2023/02/13 10:45:31;;;;;;;3.33;1.80;;;9.80;89.00;;;;;;4995579;28;20042;-73
2023/02/13 10:48:18;;;;;;;3.40;1.90;;;9.70;89.00;;;;;;5007495;28;20088;-73
2023/02/13 10:50:58;;;;;;;3.42;1.80;;;9.90;89.00;;;;;;5000188;28;20136;-74
2023/02/13 10:53:45;;;;;;;4.43;2.15;;;9.80;88.90;;;;;;5016161;28;20044;-74
2023/02/13 10:56:26;;;;;;;3.80;2.03;;;10.00;88.90;;;;;;5000942;28;20037;-73
2023/02/13 10:59:14;;;;;;;4.03;2.03;;;10.10;88.80;;;;;;5000868;28;20124;-73
2023/02/13 11:01:56;;;;;;;3.22;2.00;;;10.20;88.70;;;;;;4998740;28;20052;-73
2023/02/13 11:04:22;;;;;;;3.80;2.05;;;10.20;88.60;;;;;;5015330;28;20041;-73
2023/02/13 11:06:59;;;;;;;3.17;1.73;;;10.20;88.40;;;;;;4998591;28;20069;-73
2023/02/13 11:09:26;;;;;;;3.10;1.75;;;10.20;88.30;;;;;;5022242;28;20045;-72
2023/02/13 11:11:54;;;;;;;3.45;2.10;;;10.20;88.30;;;;;;5018201;28;20090;-73
2023/02/13 11:14:23;;;;;;;4.18;2.10;;;10.40;88.50;;;;;;5017011;28;20395;-73
2023/02/13 11:16:56;;;;;;;3.97;2.00;;;10.30;88.50;;;;;;5072697;28;20066;-72
2023/02/13 11:19:37;;;;;;;3.40;1.90;;;10.30;88.40;;;;;;5059374;28;20048;-73
2023/02/13 11:22:10;;;;;;;2.85;1.63;;;10.40;88.30;;;;;;5074641;28;20054;-73
2023/02/13 11:24:40;;;;;;;2.80;1.75;;;10.40;88.30;;;;;;5059193;28;20128;-72
2023/02/13 11:27:12;;;;;;;3.92;2.08;;;10.50;88.20;;;;;;5062149;28;20039;-73
2023/02/13 11:29:52;;;;;;;3.30;1.80;;;10.50;88.10;;;;;;5054970;28;20047;-72
2023/02/13 11:32:24;;;;;;;2.40;1.67;;;10.50;88.00;;;;;;5037557;28;20179;-73
2023/02/13 11:34:50;;;;;;;;;;;10.50;88.10;;;;;;5038435;28;20490;-73
2023/02/13 11:37:23;;;;;;;3.33;1.60;;;10.50;88.10;;;;;;5054455;28;19927;-72
2023/02/13 11:39:53;;;;;;;3.13;1.70;;;10.40;88.00;;;;;;5037700;28;20479;-72
2023/02/13 11:42:30;;;;;;;2.97;1.42;;;10.50;88.10;;;;;;5037276;28;20040;-73
2023/02/13 11:45:16;;;;;;;2.10;1.40;;;10.50;88.10;;;;;;5039347;28;20044;-73
2023/02/13 11:47:42;;;;;;;3.35;1.88;;;10.50;88.10;;;;;;5056151;28;20053;-73
2023/02/13 11:50:30;;;;;;;3.33;1.60;;;10.60;88.20;;;;;;5037579;28;20094;-72
2023/02/13 11:53:05;;;;;;;3.47;1.60;;;10.70;88.10;;;;;;5037983;28;20041;-73
2023/02/13 11:55:37;;;;;;;3.08;1.80;;;10.70;88.00;;;;;;5037208;28;20128;-73
2023/02/13 11:58:27;;;;;;;2.92;1.63;;;10.60;87.70;;;;;;5070686;28;20182;-74
2023/02/13 12:01:11;;;;;;;2.95;1.60;;;10.80;87.80;;;;;;5062601;28;20043;-73
2023/02/13 12:03:40;;;;;;;2.38;1.48;;;10.80;87.80;;;;;;5063237;28;20096;-72
2023/02/13 12:06:12;;;;;;;2.88;1.60;;;10.90;87.70;;;;;;5061954;28;20109;-73
2023/02/13 12:08:41;;;;;;;2.75;1.40;;;10.90;87.60;;;;;;5062008;28;20055;-73
2023/02/13 12:11:27;;;;;;;2.78;1.58;;;11.00;87.50;;;;;;5078745;28;20036;-73
2023/02/13 12:13:54;;;;;;;2.13;1.30;;;11.10;87.40;;;;;;5095164;28;20041;-73
2023/02/13 12:16:34;;;;;;;2.65;1.40;;;11.10;87.30;;;;;;5078617;28;20093;-73
2023/02/13 12:19:05;;;;;;;2.42;1.48;;;11.30;87.20;;;;;;5094336;28;20079;-73
2023/02/13 12:22:17;;;;;;;2.85;1.50;;;11.50;87.10;;;;;;5061603;28;20497;-73
2023/02/13 12:25:23;;;;;;;3.25;1.67;;;11.50;86.70;;;;;;5093249;28;20050;-73
2023/02/13 12:28:09;;;;;;;3.78;2.00;;;11.60;86.50;;;;;;5097228;28;20054;-73
2023/02/13 12:30:57;;;;;;;2.30;1.50;;;11.60;86.30;;;;;;5062977;28;20131;-73
2023/02/13 12:33:54;;;;;;;4.13;1.70;;;11.70;86.30;;;;;;5077583;28;20032;-72
2023/02/13 12:36:46;;;;;;;2.60;1.60;;;11.80;86.20;;;;;;5076947;28;20036;-73
2023/02/13 12:39:34;;;;;;;2.55;1.60;;;11.90;86.00;;;;;;5067217;28;20143;-74
2023/02/13 12:42:28;;;;;;;2.80;1.63;;;12.00;85.80;;;;;;5076198;28;20511;-74
2023/02/13 12:45:19;;;;;;;2.90;1.70;;;12.10;85.70;;;;;;5077567;28;20047;-73
2023/02/13 12:48:20;;;;;;;2.55;1.60;;;12.00;85.80;;;;;;5078227;28;20055;-74
2023/02/13 12:50:57;;;;;;;2.47;1.20;;;12.10;85.80;;;;;;5092458;28;20554;-73
2023/02/13 12:53:53;;;;;;;2.42;1.48;;;12.10;85.60;;;;;;5061504;28;20473;-73
2023/02/13 12:56:47;;;;;;;2.85;1.50;;;12.10;85.50;;;;;;5066750;28;20473;-72
2023/02/13 12:59:52;;;;;;;3.15;1.70;;;12.10;85.60;;;;;;5065203;28;20473;-73
2023/02/13 13:02:41;;;;;;;3.03;1.73;;;12.30;85.60;;;;;;5067888;28;20039;-72
2023/02/13 13:05:33;;;;;;;2.42;1.70;;;12.30;85.40;;;;;;5038058;28;20490;-73
2023/02/13 13:08:21;;;;;;;3.08;1.60;;;12.40;85.10;;;;;;5052775;28;20044;-72
2023/02/13 13:11:10;;;;;;;2.03;1.42;;;12.40;85.00;;;;;;5038328;28;20135;-72
2023/02/13 13:14:00;;;;;;;2.35;1.35;;;12.50;85.10;;;;;;5036530;28;20075;-72
2023/02/13 13:17:06;;;;;;;2.67;1.43;;;12.50;85.00;;;;;;5036342;28;20044;-73
2023/02/13 13:19:56;;;;;;;1.95;1.33;;;12.50;84.70;;;;;;5041633;28;20491;-73
2023/02/13 13:22:40;;;;;;;2.45;1.30;;;12.70;84.90;;;;;;5035977;28;20040;-73
2023/02/13 13:25:27;;;;;;;2.17;1.50;;;12.50;84.80;;;;;;5037965;28;20036;-74
2023/02/13 13:27:58;;;;;;;2.78;1.40;;;12.70;84.80;;;;;;5020843;28;20048;-74
2023/02/13 13:30:27;;;;;;;;;;;12.70;84.70;;;;;;5020270;28;20098;-74
2023/02/13 13:33:01;;;;;;;2.35;1.38;;;12.70;84.50;;;;;;5036601;28;19918;-74
2023/02/13 13:35:27;;;;;;;1.52;1.15;;;12.70;84.60;;;;;;5035927;28;20042;-74
2023/02/13 13:38:12;;;;;;;2.65;1.40;;;12.80;84.60;;;;;;5019492;28;20067;-74
2023/02/13 13:40:49;;;;;;;3.05;1.63;;;12.80;84.40;;;;;;5059501;28;20035;-74
2023/02/13 13:43:40;;;;;;;2.28;1.50;;;12.90;84.30;;;;;;5064657;28;20043;-74
2023/02/13 13:46:14;;;;;;;1.98;1.50;;;13.00;84.30;;;;;;5078583;28;20035;-74
2023/02/13 13:49:05;;;;;;;2.55;1.30;;;13.00;84.10;;;;;;5064022;28;20040;-73
2023/02/13 13:51:34;;;;;;;2.05;1.30;;;13.00;84.60;;;;;;5080541;28;20043;-73
2023/02/13 13:54:24;;;;;;;1.75;1.20;;;13.00;84.00;;;;;;5063311;28;20063;-74
2023/02/13 13:57:54;;;;;;;1.88;1.40;;;12.80;84.10;;;;;;5061513;28;20083;-74
2023/02/13 14:01:05;;;;;;;2.13;1.50;;;12.90;84.30;;;;;;5049219;28;20063;-75
2023/02/13 14:04:11;;;;;;;1.80;1.15;;;12.90;84.40;;;;;;5032233;28;20199;-75
2023/02/13 14:07:18;;;;;;;1.98;1.20;;;12.80;84.30;;;;;;5007206;28;20049;-74
2023/02/13 14:14:45;;;;;;;2.28;1.35;;;12.80;84.50;;;;;;4935061;29;20040;-73
2023/02/13 14:17:14;;;;;;;1.63;1.10;;;12.80;84.40;;;;;;4948832;28;20048;-73
2023/02/13 14:19:45;;;;;;;1.02;0.93;;;12.80;84.40;;;;;;4916449;29;20530;-72
2023/02/13 14:22:35;;;;;;;1.50;1.20;;;12.80;84.40;;;;;;4916664;29;20059;-72
2023/02/13 14:25:04;;;;;;;1.58;1.17;;;12.80;84.60;;;;;;4947829;29;20080;-72
2023/02/13 14:27:33;;;;;;;1.92;1.25;;;12.70;84.60;;;;;;4916415;29;20055;-72
2023/02/13 14:30:00;;;;;;;2.78;1.27;;;12.80;84.70;;;;;;4916113;29;20072;-72
2023/02/13 14:32:33;;;;;;;2.72;1.70;;;12.80;84.60;;;;;;4916165;29;20044;-73
2023/02/13 14:35:02;;;;;;;2.15;1.20;;;12.80;84.50;;;;;;4915942;29;20055;-73
2023/02/13 14:37:34;;;;;;;2.15;1.50;;;12.90;84.40;;;;;;4930852;29;20180;-73
2023/02/13 14:40:39;;;;;;;2.22;1.30;;;12.90;84.30;;;;;;4961955;28;20038;-72
2023/02/13 14:43:37;;;;;;;2.53;1.50;;;12.90;84.40;;;;;;4981877;28;20583;-72
2023/02/13 14:46:22;;;;;;;2.70;1.52;;;12.90;84.60;;;;;;5096601;28;20052;-73
2023/02/13 14:48:58;;;;;;;2.03;1.17;;;13.00;84.40;;;;;;5115126;28;20120;-72
2023/02/13 14:51:34;;;;;;;2.35;1.38;;;13.20;83.80;;;;;;5095810;28;20042;-72